Time;durP1;ratioP1;P1;durP2;ratioP2;P2;SDS_P1;SDS_P2;PMS_P1;PMS_P2;Temp;Humidity;BMP_temperature;BMP_pressure;BME280_temperature;BME280_humidity;BME280_pressure;Samples;Min_cycle;Max_cycle;Signal;HPM_P1;HPM_P2
2022/09/21 00:02:20;;;;;;;20.85;10.45;;;9.10;99.90;;;;;;4990320;28;20496;-53
2022/09/21 00:04:46;;;;;;;17.08;10.57;;;9.00;99.90;;;;;;4972890;28;20035;-54
2022/09/21 00:07:11;;;;;;;22.27;10.50;;;9.00;99.90;;;;;;4990064;28;20030;-53
2022/09/21 00:09:37;;;;;;;17.20;10.32;;;8.90;99.90;;;;;;4990247;28;20026;-54
2022/09/21 00:12:03;;;;;;;25.50;12.73;;;8.80;99.90;;;;;;4990297;28;20440;-54
2022/09/21 00:14:30;;;;;;;16.77;10.45;;;8.80;99.90;;;;;;4990170;28;20418;-53
2022/09/21 00:16:55;;;;;;;17.52;10.10;;;8.80;99.90;;;;;;4989768;28;20030;-54
2022/09/21 00:19:21;;;;;;;22.30;10.00;;;8.80;99.90;;;;;;4988556;28;20108;-54
2022/09/21 00:21:47;;;;;;;16.65;9.50;;;8.70;99.90;;;;;;4990078;28;20100;-54
2022/09/21 00:24:13;;;;;;;21.92;10.95;;;8.70;99.90;;;;;;4990146;28;20121;-54
2022/09/21 00:26:39;;;;;;;19.17;9.98;;;8.70;99.90;;;;;;4990838;28;20117;-54
2022/09/21 00:29:05;;;;;;;20.90;10.63;;;8.70;99.90;;;;;;4990874;28;20030;-54
2022/09/21 00:31:31;;;;;;;20.45;10.45;;;8.60;99.90;;;;;;4990328;28;20026;-53
2022/09/21 00:33:58;;;;;;;19.63;12.05;;;8.60;99.90;;;;;;4990834;28;20035;-54
2022/09/21 00:36:26;;;;;;;21.83;10.68;;;8.60;99.90;;;;;;4988473;28;20414;-54
2022/09/21 00:38:57;;;;;;;19.38;11.13;;;8.60;99.90;;;;;;4972000;28;20049;-54
2022/09/21 00:41:25;;;;;;;23.17;11.10;;;8.60;99.90;;;;;;4988465;28;20026;-54
2022/09/21 00:44:29;;;;;;;24.10;10.98;;;8.70;99.90;;;;;;4989940;28;20035;-54
2022/09/21 00:47:16;;;;;;;18.08;10.15;;;8.60;99.90;;;;;;4989753;28;20033;-54
2022/09/21 00:49:48;;;;;;;20.90;10.93;;;8.70;99.90;;;;;;4989106;28;20039;-54
2022/09/21 00:52:15;;;;;;;17.67;10.93;;;8.60;99.90;;;;;;4989729;28;20073;-54
2022/09/21 00:55:03;;;;;;;18.67;10.63;;;8.60;99.90;;;;;;4989664;28;20027;-54
2022/09/21 00:57:31;;;;;;;19.27;11.02;;;8.50;99.90;;;;;;4990379;28;20041;-54
2022/09/21 01:00:00;;;;;;;21.60;11.77;;;8.50;99.90;;;;;;4990422;28;20033;-53
2022/09/21 01:02:27;;;;;;;21.85;11.10;;;8.40;99.90;;;;;;4990013;28;20027;-54
2022/09/21 01:04:53;;;;;;;22.52;12.02;;;8.50;99.90;;;;;;4989475;28;20022;-53
2022/09/21 01:07:22;;;;;;;18.80;11.70;;;8.50;99.90;;;;;;4989277;28;20112;-54
2022/09/21 01:09:51;;;;;;;19.23;10.80;;;8.50;99.90;;;;;;4989179;28;20045;-54
2022/09/21 01:12:38;;;;;;;20.85;10.20;;;8.50;99.90;;;;;;4988098;28;20466;-54
2022/09/21 01:15:04;;;;;;;17.85;10.75;;;8.50;99.90;;;;;;4990428;28;20398;-53
2022/09/21 01:17:55;;;;;;;18.50;10.52;;;8.60;99.90;;;;;;4989158;28;20509;-54
2022/09/21 01:20:49;;;;;;;19.63;9.68;;;8.60;99.90;;;;;;4989526;28;20041;-53
2022/09/21 01:23:51;;;;;;;16.20;9.75;;;8.60;99.90;;;;;;4989781;28;20076;-53
2022/09/21 01:26:34;;;;;;;16.35;10.13;;;8.70;99.90;;;;;;4907164;28;20030;-54
2022/09/21 01:29:09;;;;;;;21.40;11.05;;;8.80;99.90;;;;;;4989923;28;20076;-53
2022/09/21 01:31:53;;;;;;;18.67;11.82;;;8.80;99.90;;;;;;4989786;28;20041;-54
2022/09/21 01:34:51;;;;;;;15.95;10.98;;;8.80;99.90;;;;;;4988149;28;20026;-54
2022/09/21 01:37:22;;;;;;;17.35;10.70;;;8.80;99.90;;;;;;4988837;28;20034;-54
2022/09/21 01:39:53;;;;;;;17.80;11.70;;;8.80;99.90;;;;;;4971316;28;20037;-54
2022/09/21 01:42:20;;;;;;;15.88;11.25;;;8.80;99.90;;;;;;4988963;28;20114;-54
2022/09/21 01:44:48;;;;;;;15.63;11.30;;;8.90;99.90;;;;;;4989084;28;20049;-54
2022/09/21 01:47:16;;;;;;;22.58;12.25;;;8.90;99.90;;;;;;4988483;28;20101;-53
2022/09/21 01:49:46;;;;;;;19.67;12.30;;;9.00;99.90;;;;;;4988882;28;20029;-54
2022/09/21 01:52:29;;;;;;;18.10;12.20;;;9.00;99.90;;;;;;4969567;28;20042;-54
2022/09/21 01:55:16;;;;;;;19.15;12.75;;;9.00;99.90;;;;;;4970190;28;20077;-54
2022/09/21 01:58:11;;;;;;;17.98;13.02;;;9.00;99.90;;;;;;4969894;28;20026;-53
2022/09/21 02:00:38;;;;;;;18.90;13.68;;;9.10;99.90;;;;;;4918395;28;20097;-53
2022/09/21 02:03:19;;;;;;;20.08;14.73;;;9.10;99.90;;;;;;4969595;28;20077;-52
2022/09/21 02:05:45;;;;;;;20.92;14.55;;;9.20;99.90;;;;;;4969352;28;20033;-53
2022/09/21 02:08:11;;;;;;;21.17;14.05;;;9.20;99.90;;;;;;4969201;28;20035;-54
2022/09/21 02:10:46;;;;;;;21.08;14.13;;;9.10;99.90;;;;;;4951753;28;20031;-54
2022/09/21 02:13:15;;;;;;;24.13;15.88;;;9.20;99.90;;;;;;4969675;28;20770;-54
2022/09/21 02:16:11;;;;;;;25.83;16.80;;;9.20;99.90;;;;;;4969817;28;20034;-54
2022/09/21 02:19:10;;;;;;;25.13;16.83;;;9.20;99.90;;;;;;4969810;28;20126;-53
2022/09/21 02:21:56;;;;;;;31.80;18.02;;;9.20;99.90;;;;;;4970822;28;20109;-54
2022/09/21 02:24:41;;;;;;;22.58;16.45;;;9.20;99.90;;;;;;4973664;28;20042;-54
2022/09/21 02:27:18;;;;;;;24.85;16.50;;;9.30;99.90;;;;;;4973226;28;20030;-54
2022/09/21 02:30:06;;;;;;;21.67;17.02;;;9.30;99.90;;;;;;4973446;28;20049;-54
2022/09/21 02:32:56;;;;;;;26.60;16.77;;;9.30;99.90;;;;;;4973051;28;20562;-54
2022/09/21 02:35:29;;;;;;;28.50;16.48;;;9.30;99.90;;;;;;4973284;28;20114;-54
2022/09/21 02:38:33;;;;;;;23.20;16.88;;;9.30;99.90;;;;;;4971454;28;20054;-54
2022/09/21 02:41:18;;;;;;;25.83;16.08;;;9.20;99.90;;;;;;4950892;28;20138;-54
2022/09/21 02:43:57;;;;;;;24.52;16.30;;;9.30;99.90;;;;;;4972546;28;20030;-54
2022/09/21 02:46:32;;;;;;;27.23;16.98;;;9.30;99.90;;;;;;4972607;28;20030;-54
2022/09/21 02:49:08;;;;;;;25.95;16.63;;;9.30;99.90;;;;;;4972856;28;20501;-54
2022/09/21 02:51:46;;;;;;;23.63;16.38;;;9.30;99.90;;;;;;4987081;28;20058;-53
2022/09/21 02:54:15;;;;;;;24.70;15.68;;;9.40;99.90;;;;;;4992394;28;20420;-54
2022/09/21 02:56:42;;;;;;;25.35;17.10;;;9.40;99.90;;;;;;4992216;28;20140;-54
2022/09/21 02:59:09;;;;;;;22.92;16.95;;;9.40;99.90;;;;;;4992008;28;20502;-54
2022/09/21 03:01:35;;;;;;;24.98;17.00;;;9.30;99.90;;;;;;4991936;28;20030;-54
2022/09/21 03:04:01;;;;;;;20.30;15.57;;;9.30;99.90;;;;;;4992331;28;20038;-53
2022/09/21 03:06:27;;;;;;;21.70;16.15;;;9.30;99.90;;;;;;4991985;28;20023;-53
2022/09/21 03:08:52;;;;;;;21.85;16.70;;;9.30;99.90;;;;;;4991186;28;20030;-54
2022/09/21 03:11:19;;;;;;;23.13;17.00;;;9.30;99.90;;;;;;4989753;28;20161;-54
2022/09/21 03:13:45;;;;;;;22.08;16.95;;;9.30;99.90;;;;;;4991153;28;20593;-53
2022/09/21 03:16:12;;;;;;;27.77;17.02;;;9.30;99.90;;;;;;4991155;28;20034;-53
2022/09/21 03:18:39;;;;;;;25.50;18.70;;;9.30;99.90;;;;;;4991178;28;20041;-52
2022/09/21 03:21:05;;;;;;;23.30;17.97;;;9.30;99.90;;;;;;4991709;28;20041;-52
2022/09/21 03:23:31;;;;;;;23.73;17.73;;;9.30;99.90;;;;;;4991833;28;20538;-53
2022/09/21 03:25:56;;;;;;;26.85;18.50;;;9.30;99.90;;;;;;4991865;28;20110;-52
2022/09/21 03:28:22;;;;;;;25.75;19.50;;;9.30;99.90;;;;;;4991487;28;20474;-52
2022/09/21 03:30:49;;;;;;;22.55;18.17;;;9.30;99.90;;;;;;4991752;28;20037;-52
2022/09/21 03:33:16;;;;;;;31.85;18.35;;;9.30;99.90;;;;;;4991152;28;20738;-52
2022/09/21 03:35:42;;;;;;;29.17;20.47;;;9.30;99.90;;;;;;4990762;28;20058;-52
2022/09/21 03:38:08;;;;;;;25.25;18.30;;;9.20;99.90;;;;;;4990490;28;20045;-52
2022/09/21 03:40:34;;;;;;;30.83;21.15;;;9.30;99.90;;;;;;4990543;28;20034;-52
2022/09/21 03:43:00;;;;;;;26.98;19.15;;;9.20;99.90;;;;;;4990648;28;20030;-52
2022/09/21 03:45:26;;;;;;;34.97;19.95;;;9.30;99.90;;;;;;4988918;28;20434;-52
2022/09/21 03:47:55;;;;;;;27.00;19.92;;;9.30;99.90;;;;;;4990591;28;20130;-52
2022/09/21 03:50:21;;;;;;;31.75;19.95;;;9.20;99.90;;;;;;4990947;28;20128;-52
2022/09/21 03:52:47;;;;;;;26.35;19.63;;;9.20;99.90;;;;;;4991495;28;20378;-52
2022/09/21 03:55:13;;;;;;;29.80;19.98;;;9.20;99.90;;;;;;4991345;28;20476;-52
2022/09/21 03:57:38;;;;;;;28.45;20.25;;;9.20;99.90;;;;;;4990852;28;20734;-52
2022/09/21 04:00:08;;;;;;;31.13;20.70;;;9.20;99.90;;;;;;4991018;28;20685;-52
2022/09/21 04:02:41;;;;;;;31.50;19.95;;;9.20;99.90;;;;;;4990706;28;20106;-53
2022/09/21 04:05:09;;;;;;;28.60;19.73;;;9.20;99.90;;;;;;4991084;28;20034;-52
2022/09/21 04:07:36;;;;;;;31.30;20.23;;;9.20;99.90;;;;;;4990718;28;20077;-53
2022/09/21 04:10:07;;;;;;;35.40;22.60;;;9.20;99.90;;;;;;4990823;28;20022;-52
2022/09/21 04:12:35;;;;;;;33.20;20.73;;;9.20;99.90;;;;;;4990419;28;20104;-53
2022/09/21 04:15:01;;;;;;;34.63;24.02;;;9.20;99.90;;;;;;4989928;28;20034;-52
2022/09/21 04:17:27;;;;;;;38.67;24.52;;;9.20;99.90;;;;;;4990079;28;20117;-52
2022/09/21 04:19:53;;;;;;;37.25;22.33;;;9.20;99.90;;;;;;4990548;28;20125;-53
2022/09/21 04:22:19;;;;;;;31.33;21.15;;;9.20;99.90;;;;;;4990560;28;20105;-52
2022/09/21 04:24:44;;;;;;;36.55;22.25;;;9.20;99.90;;;;;;4990634;28;20038;-52
2022/09/21 04:27:11;;;;;;;33.42;22.30;;;9.20;99.90;;;;;;4990528;28;20558;-52
2022/09/21 04:29:37;;;;;;;41.40;22.75;;;9.20;99.90;;;;;;4990716;28;20109;-52
2022/09/21 04:32:03;;;;;;;44.00;23.80;;;9.20;99.90;;;;;;4990463;28;20026;-52
2022/09/21 04:34:30;;;;;;;38.42;22.95;;;9.20;99.90;;;;;;4989731;28;20037;-52
2022/09/21 04:36:57;;;;;;;33.40;21.05;;;9.20;99.90;;;;;;4989587;28;20108;-52
2022/09/21 04:39:23;;;;;;;35.67;21.15;;;9.20;99.90;;;;;;4989238;28;20045;-52
2022/09/21 04:41:49;;;;;;;29.98;20.65;;;9.10;99.90;;;;;;4989551;28;20030;-52
2022/09/21 04:44:14;;;;;;;35.40;21.00;;;9.10;99.90;;;;;;4989674;28;20812;-52
2022/09/21 04:46:41;;;;;;;31.33;20.00;;;9.10;99.90;;;;;;4990262;28;20114;-52
2022/09/21 04:49:07;;;;;;;33.57;20.27;;;9.10;99.90;;;;;;4989953;28;20034;-52
2022/09/21 04:51:33;;;;;;;30.70;19.70;;;9.10;99.90;;;;;;4989922;28;20046;-53
2022/09/21 04:53:59;;;;;;;32.58;21.08;;;9.00;99.90;;;;;;4990059;28;20092;-52
2022/09/21 04:56:25;;;;;;;34.15;19.80;;;9.00;99.90;;;;;;4990201;28;20027;-52
2022/09/21 04:58:50;;;;;;;31.17;20.13;;;9.00;99.90;;;;;;4989856;28;20038;-52
2022/09/21 05:01:16;;;;;;;37.05;20.05;;;9.00;99.90;;;;;;4990079;28;20054;-52
2022/09/21 05:03:42;;;;;;;36.58;23.15;;;9.00;99.90;;;;;;4989642;28;20038;-52
2022/09/21 05:06:09;;;;;;;34.00;20.55;;;8.90;99.90;;;;;;4971831;28;20105;-52
2022/09/21 05:11:19;;;;;;;35.42;19.95;;;9.00;99.90;;;;;;4989252;28;20544;-52
2022/09/21 05:13:45;;;;;;;34.25;21.13;;;8.90;99.90;;;;;;4989529;28;20030;-52
2022/09/21 05:16:11;;;;;;;38.63;22.02;;;9.00;99.90;;;;;;4989689;28;20034;-52
2022/09/21 05:18:37;;;;;;;42.05;25.05;;;8.90;99.90;;;;;;4989447;28;20046;-52
2022/09/21 05:21:05;;;;;;;41.22;22.58;;;8.90;99.90;;;;;;4972259;28;20121;-52
2022/09/21 05:23:31;;;;;;;40.50;23.20;;;8.90;99.90;;;;;;4989870;28;20080;-52
2022/09/21 05:25:57;;;;;;;42.50;23.45;;;8.90;99.90;;;;;;4989799;28;20026;-52
2022/09/21 05:28:24;;;;;;;44.15;24.15;;;8.90;99.90;;;;;;4989704;28;20049;-53
2022/09/21 05:30:57;;;;;;;47.13;24.83;;;9.00;99.90;;;;;;4989814;28;20031;-53
2022/09/21 05:33:27;;;;;;;45.30;23.92;;;8.90;99.90;;;;;;4989519;28;20030;-52
2022/09/21 05:36:12;;;;;;;47.63;26.00;;;8.90;99.90;;;;;;4985636;28;20023;-52
2022/09/21 05:38:38;;;;;;;44.70;24.38;;;8.90;99.90;;;;;;4978833;28;20039;-52
2022/09/21 05:41:05;;;;;;;39.65;23.50;;;9.00;99.90;;;;;;4978372;28;20019;-52
2022/09/21 05:43:30;;;;;;;47.33;26.42;;;9.00;99.90;;;;;;4975435;28;20162;-52
2022/09/21 05:46:04;;;;;;;54.10;27.05;;;8.90;99.90;;;;;;4978272;28;20019;-53
2022/09/21 05:48:41;;;;;;;50.40;25.67;;;9.00;99.90;;;;;;4978928;28;20062;-51
2022/09/21 05:51:16;;;;;;;45.17;23.77;;;9.00;99.90;;;;;;4969231;28;20411;-52
2022/09/21 05:54:03;;;;;;;38.47;22.73;;;9.00;99.90;;;;;;4979003;28;20037;-52
2022/09/21 05:56:42;;;;;;;48.05;23.27;;;8.90;99.90;;;;;;4980651;28;20090;-53
2022/09/21 05:59:40;;;;;;;46.42;25.80;;;9.00;99.90;;;;;;4967614;28;20037;-53
2022/09/21 06:02:39;;;;;;;45.60;24.13;;;9.00;99.90;;;;;;4982225;28;20030;-52
2022/09/21 06:05:10;;;;;;;47.72;23.60;;;9.10;99.90;;;;;;4985824;28;20037;-52
2022/09/21 06:07:35;;;;;;;46.20;22.95;;;9.10;99.90;;;;;;4974054;28;20031;-52
2022/09/21 06:10:01;;;;;;;40.80;22.25;;;9.10;99.90;;;;;;4964167;28;20038;-52
2022/09/21 06:12:27;;;;;;;42.47;22.35;;;9.10;99.90;;;;;;4984170;28;20026;-52
2022/09/21 06:14:52;;;;;;;47.42;24.27;;;9.10;99.90;;;;;;4982326;28;20081;-52
2022/09/21 06:17:18;;;;;;;43.72;24.40;;;9.10;99.90;;;;;;4983959;28;20026;-52
2022/09/21 06:19:44;;;;;;;44.65;25.70;;;9.10;99.90;;;;;;4980570;28;20034;-52
2022/09/21 06:22:10;;;;;;;49.58;24.83;;;9.10;99.90;;;;;;4981655;28;20025;-53
2022/09/21 06:24:35;;;;;;;48.17;26.35;;;9.10;99.90;;;;;;4983661;28;20030;-55
2022/09/21 06:27:01;;;;;;;44.15;23.20;;;9.10;99.90;;;;;;4982924;28;20019;-52
2022/09/21 06:29:27;;;;;;;46.55;23.42;;;9.10;99.90;;;;;;4979042;28;20543;-53
2022/09/21 06:31:52;;;;;;;46.17;24.08;;;9.10;99.90;;;;;;4976863;28;20069;-52
2022/09/21 06:34:18;;;;;;;44.92;24.75;;;9.10;99.90;;;;;;4993003;28;20058;-52
2022/09/21 06:36:44;;;;;;;40.25;22.17;;;9.20;99.90;;;;;;4992555;28;20458;-52
2022/09/21 06:39:10;;;;;;;44.08;23.70;;;9.20;99.90;;;;;;4990363;28;20042;-52
2022/09/21 06:41:36;;;;;;;39.75;22.67;;;9.20;99.90;;;;;;4989352;28;20023;-52
2022/09/21 06:44:02;;;;;;;47.15;23.98;;;9.20;99.90;;;;;;4981996;28;20118;-53
2022/09/21 06:46:27;;;;;;;46.08;24.42;;;9.20;99.90;;;;;;4975962;28;20364;-52
2022/09/21 06:48:53;;;;;;;44.45;25.35;;;9.30;99.90;;;;;;4992432;28;20026;-52
2022/09/21 06:51:20;;;;;;;43.75;22.50;;;9.30;99.90;;;;;;4992156;28;20046;-52
2022/09/21 06:53:47;;;;;;;46.08;24.23;;;9.30;99.90;;;;;;4990982;28;20026;-52
2022/09/21 06:56:13;;;;;;;48.85;24.63;;;9.30;99.90;;;;;;4992569;28;20109;-53
2022/09/21 06:58:39;;;;;;;46.95;23.83;;;9.20;99.90;;;;;;4992340;28;20144;-53
2022/09/21 07:01:10;;;;;;;49.85;25.30;;;9.30;99.90;;;;;;4992082;28;20541;-53
2022/09/21 07:03:36;;;;;;;49.35;25.10;;;9.30;99.90;;;;;;4992208;28;20065;-52
2022/09/21 07:06:02;;;;;;;45.85;23.30;;;9.30;99.90;;;;;;4991989;28;20026;-53
2022/09/21 07:08:28;;;;;;;45.78;23.75;;;9.40;99.90;;;;;;4991358;28;20033;-53
2022/09/21 07:10:57;;;;;;;41.80;23.23;;;9.40;99.90;;;;;;4992168;28;20022;-52
2022/09/21 07:13:25;;;;;;;42.13;22.65;;;9.50;99.90;;;;;;4985245;28;20043;-53
2022/09/21 07:15:50;;;;;;;47.53;23.10;;;9.50;99.90;;;;;;4979617;28;20061;-52
2022/09/21 07:18:16;;;;;;;41.75;22.50;;;9.50;99.90;;;;;;4981288;28;20074;-52
2022/09/21 07:20:42;;;;;;;44.20;24.42;;;9.50;99.90;;;;;;4981842;28;20031;-52
2022/09/21 07:23:14;;;;;;;42.85;23.23;;;9.60;99.90;;;;;;4978242;28;20374;-53
2022/09/21 07:25:40;;;;;;;43.10;24.48;;;9.50;99.90;;;;;;4982324;28;20038;-53
2022/09/21 07:28:06;;;;;;;41.83;23.48;;;9.50;99.90;;;;;;4981599;28;20532;-53
2022/09/21 07:30:31;;;;;;;47.78;24.10;;;9.60;99.90;;;;;;4980223;28;20019;-54
2022/09/21 07:32:57;;;;;;;35.28;21.65;;;9.50;99.90;;;;;;4981731;28;20060;-53
2022/09/21 07:35:23;;;;;;;41.78;22.98;;;9.60;99.90;;;;;;4981790;28;20463;-53
2022/09/21 07:37:49;;;;;;;39.65;21.83;;;9.60;99.90;;;;;;4977981;28;20478;-53
2022/09/21 07:40:15;;;;;;;33.10;19.90;;;9.70;99.90;;;;;;4980878;28;20080;-53
2022/09/21 07:42:40;;;;;;;34.45;18.30;;;9.70;99.90;;;;;;4981270;28;20031;-53
2022/09/21 07:45:07;;;;;;;30.25;19.02;;;9.70;99.90;;;;;;4979716;28;20033;-53
2022/09/21 07:47:32;;;;;;;32.30;19.77;;;9.80;99.90;;;;;;4980871;28;20482;-53
2022/09/21 07:49:58;;;;;;;42.20;22.20;;;9.90;99.90;;;;;;4977653;28;20025;-53
2022/09/21 07:52:23;;;;;;;38.80;21.05;;;9.80;99.90;;;;;;4981297;28;20050;-53
2022/09/21 07:54:49;;;;;;;36.15;21.92;;;9.80;99.90;;;;;;4977174;28;20372;-53
2022/09/21 07:59:59;;;;;;;44.45;23.17;;;9.80;99.90;;;;;;4978492;28;20045;-53
2022/09/21 08:02:25;;;;;;;40.63;22.42;;;9.90;99.90;;;;;;4985089;28;20019;-54
2022/09/21 08:04:51;;;;;;;33.22;20.77;;;9.90;99.90;;;;;;4981296;28;20037;-53
2022/09/21 08:07:16;;;;;;;35.05;20.88;;;9.90;99.90;;;;;;4987853;28;20501;-53
2022/09/21 08:09:42;;;;;;;33.65;19.17;;;9.90;99.90;;;;;;4988046;28;20403;-53
2022/09/21 08:12:09;;;;;;;31.65;18.35;;;10.00;99.90;;;;;;4983384;28;20488;-53
2022/09/21 08:14:35;;;;;;;30.90;19.00;;;10.00;99.90;;;;;;4981404;28;20025;-53
2022/09/21 08:17:02;;;;;;;29.85;17.67;;;10.00;99.90;;;;;;4981120;28;20114;-53
2022/09/21 08:19:28;;;;;;;28.88;17.90;;;10.00;99.90;;;;;;4980533;28;20034;-54
2022/09/21 08:21:54;;;;;;;27.33;16.58;;;10.00;99.90;;;;;;4981811;28;20485;-53
2022/09/21 08:24:20;;;;;;;25.35;15.70;;;10.00;99.90;;;;;;4987836;28;20061;-53
2022/09/21 08:26:45;;;;;;;24.98;16.25;;;10.10;99.90;;;;;;4980017;28;20022;-53
2022/09/21 08:29:14;;;;;;;27.98;16.95;;;10.10;99.90;;;;;;4980731;28;20030;-54
2022/09/21 08:31:40;;;;;;;26.65;16.02;;;10.20;99.90;;;;;;4962005;28;20537;-52
2022/09/21 08:34:06;;;;;;;28.33;14.30;;;10.20;99.90;;;;;;4981906;28;20034;-52
2022/09/21 08:36:31;;;;;;;20.27;12.75;;;10.20;99.90;;;;;;4984964;28;20037;-52
2022/09/21 08:38:57;;;;;;;25.60;14.20;;;10.30;99.90;;;;;;4978437;28;20046;-52
2022/09/21 08:41:31;;;;;;;22.63;12.27;;;10.30;99.90;;;;;;4980388;28;20467;-53
2022/09/21 08:44:10;;;;;;;20.58;11.55;;;10.30;99.90;;;;;;4979545;28;20037;-53
2022/09/21 08:46:36;;;;;;;15.55;10.63;;;10.20;99.90;;;;;;4979469;28;20050;-53
2022/09/21 08:49:13;;;;;;;18.15;11.50;;;10.30;99.90;;;;;;4978948;28;20028;-53
2022/09/21 08:51:49;;;;;;;18.50;12.43;;;10.30;99.90;;;;;;4979850;28;20062;-52
2022/09/21 08:54:33;;;;;;;20.42;13.23;;;10.40;99.90;;;;;;4979451;28;20042;-53
2022/09/21 08:56:59;;;;;;;22.23;13.07;;;10.40;99.90;;;;;;4967503;28;20026;-55
2022/09/21 08:59:24;;;;;;;19.70;11.95;;;10.40;99.90;;;;;;4977139;28;20046;-52
2022/09/21 09:02:13;;;;;;;16.10;11.77;;;10.50;99.90;;;;;;4978468;28;20022;-52
2022/09/21 09:04:48;;;;;;;15.93;11.15;;;10.50;99.90;;;;;;4925674;28;20081;-54
2022/09/21 09:07:32;;;;;;;16.25;10.95;;;10.50;99.90;;;;;;4962433;28;20042;-54
2022/09/21 09:10:35;;;;;;;18.63;11.88;;;10.60;99.90;;;;;;4962816;28;20029;-54
2022/09/21 09:13:27;;;;;;;19.55;13.75;;;10.70;99.90;;;;;;4956161;28;20041;-54
2022/09/21 09:15:58;;;;;;;25.70;14.55;;;10.80;99.90;;;;;;4960759;28;20066;-54
2022/09/21 09:18:44;;;;;;;17.58;11.90;;;10.90;99.90;;;;;;4980631;28;20453;-52
2022/09/21 09:21:22;;;;;;;19.98;12.20;;;10.90;99.90;;;;;;4980645;28;20748;-51
2022/09/21 09:24:12;;;;;;;17.55;12.85;;;10.80;99.90;;;;;;4980402;28;20022;-52
2022/09/21 09:27:01;;;;;;;16.38;11.45;;;10.80;99.90;;;;;;4957396;28;20058;-53
2022/09/21 09:29:30;;;;;;;15.38;11.13;;;10.80;99.90;;;;;;4963058;28;20433;-53
2022/09/21 09:31:58;;;;;;;17.25;11.30;;;10.90;99.90;;;;;;4982894;28;20041;-53
2022/09/21 09:34:34;;;;;;;19.65;13.25;;;10.80;99.90;;;;;;4984721;28;20482;-53
2022/09/21 09:37:12;;;;;;;18.50;12.98;;;10.90;99.90;;;;;;4983627;28;20057;-53
2022/09/21 09:39:40;;;;;;;25.00;14.48;;;11.00;99.90;;;;;;4983498;28;20070;-53
2022/09/21 09:42:18;;;;;;;28.55;17.00;;;10.90;99.90;;;;;;4980913;28;20027;-54
2022/09/21 09:45:12;;;;;;;24.58;13.68;;;11.00;99.90;;;;;;4964922;28;20425;-53
2022/09/21 09:47:47;;;;;;;20.52;12.88;;;11.10;99.90;;;;;;4984975;28;20026;-53
2022/09/21 09:50:21;;;;;;;22.17;13.38;;;11.20;99.90;;;;;;4982311;28;20023;-54
2022/09/21 09:52:53;;;;;;;19.33;13.38;;;11.30;99.90;;;;;;4976768;28;20035;-53
2022/09/21 09:55:25;;;;;;;26.58;14.20;;;11.40;99.90;;;;;;4966536;28;20038;-53
2022/09/21 09:57:55;;;;;;;12.43;8.10;;;11.40;99.90;;;;;;4984102;28;20035;-53
2022/09/21 10:00:21;;;;;;;16.00;8.52;;;11.50;99.90;;;;;;4966778;28;20026;-54
2022/09/21 10:02:54;;;;;;;10.15;7.22;;;11.50;99.90;;;;;;4983272;28;20074;-53
2022/09/21 10:05:24;;;;;;;12.52;8.00;;;11.40;99.90;;;;;;4982895;28;20023;-53
2022/09/21 10:07:51;;;;;;;11.77;8.38;;;11.40;99.90;;;;;;4984399;28;20026;-53
2022/09/21 10:10:22;;;;;;;12.57;8.82;;;11.40;99.90;;;;;;4982156;28;20023;-53
2022/09/21 10:12:50;;;;;;;14.82;8.70;;;11.40;99.90;;;;;;4982159;28;20028;-53
2022/09/21 10:15:17;;;;;;;9.40;6.38;;;11.50;99.90;;;;;;4984098;28;20026;-54
2022/09/21 10:17:45;;;;;;;11.48;7.25;;;11.50;99.90;;;;;;4982580;28;20023;-53
2022/09/21 10:20:18;;;;;;;14.73;6.90;;;11.50;99.90;;;;;;4963988;28;20042;-53
2022/09/21 10:22:48;;;;;;;11.75;7.63;;;11.50;99.90;;;;;;4982442;28;20100;-53
2022/09/21 10:25:16;;;;;;;9.73;5.28;;;11.50;99.90;;;;;;4983137;28;20482;-53
2022/09/21 10:27:45;;;;;;;7.60;3.95;;;11.50;99.90;;;;;;4983460;28;20027;-53
2022/09/21 10:30:29;;;;;;;8.32;4.80;;;11.50;99.90;;;;;;4981372;28;20030;-54
2022/09/21 10:32:57;;;;;;;8.45;4.30;;;11.50;99.90;;;;;;4981079;28;20895;-54
2022/09/21 10:35:23;;;;;;;6.65;4.15;;;11.60;99.90;;;;;;4981134;28;20450;-53
2022/09/21 10:38:08;;;;;;;8.45;4.50;;;11.60;99.90;;;;;;4983155;28;20023;-54
2022/09/21 10:40:38;;;;;;;6.05;3.50;;;11.60;99.90;;;;;;4983344;28;20116;-54
2022/09/21 10:43:04;;;;;;;5.47;3.45;;;11.70;99.90;;;;;;4980018;28;20023;-53
2022/09/21 10:45:36;;;;;;;8.55;3.85;;;11.90;99.90;;;;;;4981199;28;20027;-53
2022/09/21 10:48:04;;;;;;;10.38;5.03;;;12.20;99.90;;;;;;4981712;28;20027;-54
2022/09/21 10:50:40;;;;;;;9.60;6.43;;;12.60;99.90;;;;;;4981092;28;20057;-54
2022/09/21 10:53:08;;;;;;;9.65;6.70;;;12.70;99.90;;;;;;4982270;28;20031;-53
2022/09/21 10:55:42;;;;;;;11.85;7.00;;;12.80;99.90;;;;;;4980601;28;20023;-53
2022/09/21 10:58:13;;;;;;;19.10;6.95;;;12.80;99.90;;;;;;4981343;28;20084;-54
2022/09/21 11:00:48;;;;;;;9.93;5.93;;;12.90;99.90;;;;;;4981025;28;20070;-54
2022/09/21 11:03:29;;;;;;;7.85;4.57;;;13.10;99.90;;;;;;4982366;28;20029;-53
2022/09/21 11:06:21;;;;;;;9.05;5.45;;;13.20;99.90;;;;;;4979183;28;20073;-54
2022/09/21 11:09:01;;;;;;;9.77;5.38;;;13.40;99.90;;;;;;4981424;28;20034;-54
2022/09/21 11:11:46;;;;;;;7.85;5.47;;;13.30;99.90;;;;;;4981576;28;20023;-54
2022/09/21 11:14:23;;;;;;;7.93;5.28;;;13.20;99.90;;;;;;4980343;28;20038;-54
2022/09/21 11:17:06;;;;;;;8.88;5.03;;;13.20;99.90;;;;;;4980246;28;20023;-54
2022/09/21 11:19:48;;;;;;;8.18;5.10;;;13.10;99.90;;;;;;4982342;28;20050;-54
2022/09/21 11:22:34;;;;;;;10.57;5.88;;;13.00;99.90;;;;;;4978956;28;20554;-54
2022/09/21 11:25:15;;;;;;;8.30;5.75;;;13.10;99.90;;;;;;4980819;28;20064;-55
2022/09/21 11:27:48;;;;;;;8.48;5.68;;;13.00;99.90;;;;;;4982819;28;20035;-53
2022/09/21 11:30:18;;;;;;;9.43;5.95;;;13.00;99.90;;;;;;4977126;28;20046;-53
2022/09/21 11:32:50;;;;;;;9.43;5.88;;;13.00;99.90;;;;;;4982440;28;20034;-53
2022/09/21 11:35:19;;;;;;;12.02;6.85;;;13.10;99.90;;;;;;4988393;28;20042;-53
2022/09/21 11:38:17;;;;;;;11.98;6.60;;;13.20;99.90;;;;;;4989082;28;20026;-53
2022/09/21 11:41:02;;;;;;;9.13;5.40;;;13.40;99.90;;;;;;4988993;28;20533;-53
2022/09/21 11:43:45;;;;;;;9.18;5.05;;;13.70;99.90;;;;;;4988159;28;20034;-53
2022/09/21 11:46:28;;;;;;;9.32;5.00;;;13.70;99.90;;;;;;4988841;28;20034;-52
2022/09/21 11:49:09;;;;;;;7.97;4.80;;;13.60;99.90;;;;;;4988411;28;20038;-53
2022/09/21 11:52:00;;;;;;;9.00;4.35;;;13.70;99.90;;;;;;4988114;28;20051;-53
2022/09/21 11:58:14;;;;;;;8.25;4.72;;;14.00;99.90;;;;;;4987554;28;20041;-53
2022/09/21 12:01:17;;;;;;;9.82;3.72;;;14.00;99.90;;;;;;4987334;28;20026;-54
2022/09/21 12:04:30;;;;;;;5.25;3.25;;;13.90;99.90;;;;;;4984578;28;20050;-53
2022/09/21 12:07:24;;;;;;;6.65;2.97;;;13.90;99.90;;;;;;4937953;28;20034;-53
2022/09/21 12:10:14;;;;;;;5.88;3.08;;;13.80;99.90;;;;;;4980031;28;20648;-54
2022/09/21 12:13:01;;;;;;;6.65;2.72;;;13.80;99.90;;;;;;4979705;28;20110;-53
2022/09/21 12:15:32;;;;;;;7.82;3.50;;;13.80;99.90;;;;;;4978227;28;20308;-53
2022/09/21 12:18:26;;;;;;;10.45;3.55;;;13.90;99.90;;;;;;4983430;28;20046;-53
2022/09/21 12:20:57;;;;;;;6.88;4.10;;;13.90;99.90;;;;;;4987161;28;20499;-53
2022/09/21 12:23:34;;;;;;;5.75;3.30;;;13.90;99.90;;;;;;4970556;28;20030;-53
2022/09/21 12:26:02;;;;;;;6.55;3.17;;;13.90;99.90;;;;;;4970626;28;20027;-54
2022/09/21 12:28:33;;;;;;;4.85;3.15;;;14.00;99.90;;;;;;4970373;28;20023;-55
2022/09/21 12:31:04;;;;;;;5.70;2.88;;;14.10;99.90;;;;;;4961764;28;20022;-54
2022/09/21 12:33:46;;;;;;;8.90;3.90;;;14.10;99.90;;;;;;4977767;28;20402;-53
2022/09/21 12:36:28;;;;;;;10.35;3.95;;;14.20;99.90;;;;;;4980765;28;20022;-54
2022/09/21 12:39:22;;;;;;;6.13;2.80;;;14.20;99.90;;;;;;4981171;28;20104;-54
2022/09/21 12:42:06;;;;;;;6.15;2.70;;;14.20;99.90;;;;;;4979941;28;20027;-54
2022/09/21 12:44:50;;;;;;;4.55;3.03;;;14.10;99.90;;;;;;4963012;28;20035;-53
2022/09/21 12:47:22;;;;;;;5.68;3.45;;;14.10;99.90;;;;;;4980439;28;20021;-53
2022/09/21 12:49:50;;;;;;;7.47;4.00;;;14.00;99.90;;;;;;4979877;28;20625;-54
2022/09/21 12:52:24;;;;;;;7.57;3.97;;;14.00;99.90;;;;;;4978267;28;20214;-54
2022/09/21 12:54:59;;;;;;;9.20;3.85;;;14.00;99.90;;;;;;4978541;28;20395;-54
2022/09/21 12:57:30;;;;;;;7.57;3.60;;;14.00;99.90;;;;;;4979139;28;20087;-53
2022/09/21 13:00:08;;;;;;;5.63;3.67;;;14.00;99.90;;;;;;4978165;28;20194;-53
2022/09/21 13:02:51;;;;;;;;;;;14.00;99.90;;;;;;4978713;28;20027;-54
2022/09/21 13:05:26;;;;;;;6.32;3.25;;;14.00;99.90;;;;;;4980305;28;19909;-53
2022/09/21 13:08:08;;;;;;;6.40;3.08;;;14.10;99.90;;;;;;4978144;28;20041;-54
2022/09/21 13:10:54;;;;;;;5.57;3.42;;;14.40;99.90;;;;;;4979068;28;20034;-53
2022/09/21 13:13:43;;;;;;;5.55;3.08;;;14.70;99.90;;;;;;4959731;28;20078;-53
2022/09/21 13:16:30;;;;;;;6.47;3.20;;;14.60;99.90;;;;;;4978823;28;20073;-53